Terminal Aerodrome Forecast
Issued by NWS Charleston, WV

Current Version | Previous Version | Graphics & Text | Print | Product List | Glossary On
Versions: 1 2 3 4 5 6 7 8 9 10 11 12 13 14 15 16 17 18 19 20 21 22 23 24
000
FTUS41 KRLX 282100 AAA
TAFBKW
TAF AMD
KBKW 282152Z 2822/2918 30011G15KT P6SM VCSH SCT025 BKN035
     FM290300 VRB03KT P6SM SCT040
     FM291400 31004KT P6SM SCT200
     FM291600 31006KT P6SM SCT040=

USA.gov is the U.S. government's official web portal to all federal, state and local government web resources and services.